Time;durP1;ratioP1;P1;durP2;ratioP2;P2;SDS_P1;SDS_P2;PMS_P1;PMS_P2;Temp;Humidity;BMP_temperature;BMP_pressure;BME280_temperature;BME280_humidity;BME280_pressure;Samples;Min_cycle;Max_cycle;Signal;HPM_P1;HPM_P2
2023/03/18 00:01:51;;;;;;;5.80;3.60;;;;;;;;;;5082828;28;20484;-70
2023/03/18 00:04:18;;;;;;;7.10;4.20;;;;;;;;;;5098719;28;20477;-68
2023/03/18 00:06:44;;;;;;;5.03;3.20;;;;;;;;;;5102843;28;20863;-67
2023/03/18 00:09:12;;;;;;;6.33;3.30;;;;;;;;;;5099706;28;20443;-70
2023/03/18 00:11:39;;;;;;;5.73;3.60;;;;;;;;;;5099172;28;20488;-67
2023/03/18 00:14:07;;;;;;;5.60;3.50;;;;;;;;;;5095936;28;20503;-69
2023/03/18 00:16:34;;;;;;;7.73;4.20;;;;;;;;;;5099374;28;20482;-67
2023/03/18 00:19:03;;;;;;;7.13;4.57;;;;;;;;;;5096044;28;20513;-70
2023/03/18 00:21:30;;;;;;;6.90;4.07;;;;;;;;;;5097373;28;20529;-70
2023/03/18 00:23:57;;;;;;;9.97;5.23;;;;;;;;;;5095423;28;20476;-62
2023/03/18 00:26:24;;;;;;;6.33;3.90;;;;;;;;;;5099663;28;20486;-62
2023/03/18 00:28:50;;;;;;;6.27;4.40;;;;;;;;;;5102567;28;20483;-61
2023/03/18 00:31:18;;;;;;;8.37;4.20;;;;;;;;;;5096397;28;20484;-61
2023/03/18 00:33:45;;;;;;;6.70;3.80;;;;;;;;;;5091620;28;20447;-63
2023/03/18 00:36:14;;;;;;;6.60;3.43;;;;;;;;;;5091589;28;20548;-60
2023/03/18 00:38:41;;;;;;;7.20;3.43;;;;;;;;;;5096529;28;20444;-62
2023/03/18 00:41:11;;;;;;;9.90;4.23;;;;;;;;;;5089925;28;20510;-63
2023/03/18 00:43:44;;;;;;;10.50;4.40;;;;;;;;;;5092159;28;20471;-62
2023/03/18 00:46:11;;;;;;;6.23;4.03;;;;;;;;;;5098721;28;20475;-62
2023/03/18 00:48:38;;;;;;;6.00;3.53;;;;;;;;;;5092827;28;20480;-62
2023/03/18 00:51:05;;;;;;;5.90;4.43;;;;;;;;;;5092355;28;20505;-60
2023/03/18 00:53:34;;;;;;;5.73;3.97;;;;;;;;;;5099189;28;20477;-62
2023/03/18 00:56:00;;;;;;;7.10;4.40;;;;;;;;;;5096945;28;20479;-62
2023/03/18 00:58:27;;;;;;;8.10;4.70;;;;;;;;;;5099745;28;20475;-63
2023/03/18 01:00:53;;;;;;;8.90;5.10;;;;;;;;;;5093555;28;21170;-62
2023/03/18 01:03:24;;;;;;;7.03;4.67;;;;;;;;;;5097084;28;20470;-61
2023/03/18 01:05:52;;;;;;;12.07;4.50;;;;;;;;;;5100530;28;21074;-61
2023/03/18 01:08:20;;;;;;;5.87;4.43;;;;;;;;;;5101899;28;20467;-61
2023/03/18 01:10:48;;;;;;;9.70;4.57;;;;;;;;;;5100590;28;20495;-62
2023/03/18 01:13:14;;;;;;;5.70;4.20;;;;;;;;;;5091292;28;20870;-61
2023/03/18 01:15:41;;;;;;;7.27;4.23;;;;;;;;;;5094276;28;20963;-62
2023/03/18 01:18:10;;;;;;;5.73;4.20;;;;;;;;;;5101449;28;20456;-58
2023/03/18 01:20:36;;;;;;;6.83;4.23;;;;;;;;;;5101803;28;20481;-58
2023/03/18 01:23:03;;;;;;;9.27;4.80;;;;;;;;;;5097549;28;20448;-60
2023/03/18 01:25:30;;;;;;;7.90;4.60;;;;;;;;;;5099388;28;20492;-61
2023/03/18 01:27:58;;;;;;;7.60;5.47;;;;;;;;;;5096396;28;20692;-61
2023/03/18 01:30:25;;;;;;;6.20;4.10;;;;;;;;;;5097742;28;20452;-61
2023/03/18 01:32:52;;;;;;;8.07;4.63;;;;;;;;;;5092397;28;20466;-59
2023/03/18 01:35:19;;;;;;;8.10;5.10;;;;;;;;;;5098898;28;20459;-61
2023/03/18 01:37:45;;;;;;;6.00;4.60;;;;;;;;;;5102575;28;20574;-62
2023/03/18 01:40:13;;;;;;;8.90;5.20;;;;;;;;;;5093345;28;21000;-59
2023/03/18 01:42:39;;;;;;;7.37;4.33;;;;;;;;;;5093655;28;20562;-62
2023/03/18 01:45:24;;;;;;;7.17;4.50;;;;;;;;;;5098892;28;20451;-56
2023/03/18 01:47:52;;;;;;;6.93;4.57;;;;;;;;;;5081730;28;20478;-59
2023/03/18 01:50:20;;;;;;;10.13;5.20;;;;;;;;;;5095030;28;20475;-61
2023/03/18 01:52:48;;;;;;;7.60;4.60;;;;;;;;;;5094559;28;20469;-61
2023/03/18 01:55:18;;;;;;;8.47;5.33;;;;;;;;;;5098074;28;20484;-61
2023/03/18 01:57:44;;;;;;;7.43;4.93;;;;;;;;;;5100609;28;20497;-59
2023/03/18 02:00:12;;;;;;;7.93;5.40;;;;;;;;;;5093266;28;21104;-60
2023/03/18 02:02:40;;;;;;;7.80;5.57;;;;;;;;;;5099472;28;20460;-60
2023/03/18 02:05:10;;;;;;;9.97;5.23;;;;;;;;;;5092702;28;20548;-61
2023/03/18 02:07:37;;;;;;;6.70;4.70;;;;;;;;;;5097380;28;20480;-62
2023/03/18 02:10:06;;;;;;;13.03;5.63;;;;;;;;;;5094394;28;20465;-61
2023/03/18 02:12:35;;;;;;;9.50;5.00;;;;;;;;;;5092452;28;20468;-59
2023/03/18 02:15:02;;;;;;;7.10;5.80;;;;;;;;;;5088765;28;20531;-60
2023/03/18 02:17:31;;;;;;;9.90;4.30;;;;;;;;;;5098513;28;20858;-60
2023/03/18 02:20:03;;;;;;;7.80;5.13;;;;;;;;;;5083234;28;20478;-61
2023/03/18 02:22:32;;;;;;;7.77;4.90;;;;;;;;;;5087838;28;20481;-61
2023/03/18 02:25:04;;;;;;;10.43;4.53;;;;;;;;;;5098079;28;20461;-60
2023/03/18 02:27:34;;;;;;;8.00;4.63;;;;;;;;;;5096282;28;20480;-60
2023/03/18 02:30:03;;;;;;;9.57;5.27;;;;;;;;;;5094911;28;20458;-61
2023/03/18 02:32:31;;;;;;;8.63;4.77;;;;;;;;;;5095941;28;20488;-61
2023/03/18 02:35:00;;;;;;;11.63;5.20;;;;;;;;;;5101277;28;20447;-59
2023/03/18 02:37:26;;;;;;;11.40;5.40;;;;;;;;;;5093021;28;20476;-60
2023/03/18 02:39:52;;;;;;;10.33;5.60;;;;;;;;;;5090875;28;20487;-61
2023/03/18 02:42:27;;;;;;;10.30;6.10;;;;;;;;;;5096126;28;20484;-61
2023/03/18 02:44:55;;;;;;;7.37;5.53;;;;;;;;;;5100289;28;20478;-61
2023/03/18 02:47:22;;;;;;;8.60;5.50;;;;;;;;;;5100002;28;20507;-61
2023/03/18 02:49:49;;;;;;;9.70;5.40;;;;;;;;;;5095470;28;20455;-61
2023/03/18 02:52:15;;;;;;;10.80;5.47;;;;;;;;;;5095688;28;20483;-60
2023/03/18 02:54:42;;;;;;;10.03;5.20;;;;;;;;;;5093688;28;20468;-61
2023/03/18 02:57:08;;;;;;;7.30;5.10;;;;;;;;;;5094855;28;20518;-61
2023/03/18 02:59:35;;;;;;;8.30;5.30;;;;;;;;;;5099489;28;20786;-61
2023/03/18 03:02:03;;;;;;;7.17;6.17;;;;;;;;;;5090813;28;20518;-62
2023/03/18 03:04:30;;;;;;;9.57;5.07;;;;;;;;;;5092163;28;20457;-61
2023/03/18 03:06:58;;;;;;;9.27;5.83;;;;;;;;;;5099706;28;20547;-59
2023/03/18 03:09:24;;;;;;;8.47;5.90;;;;;;;;;;5097015;28;20439;-61
2023/03/18 03:11:51;;;;;;;9.40;4.80;;;;;;;;;;5090894;28;20490;-62
2023/03/18 03:14:18;;;;;;;7.30;5.80;;;;;;;;;;5091418;28;20972;-61
2023/03/18 03:16:45;;;;;;;14.13;4.60;;;;;;;;;;5093552;28;20514;-61
2023/03/18 03:19:13;;;;;;;8.63;5.30;;;;;;;;;;5089612;28;20473;-62
2023/03/18 03:21:40;;;;;;;8.90;4.83;;;;;;;;;;5093928;28;20965;-62
2023/03/18 03:24:07;;;;;;;9.93;4.53;;;;;;;;;;5096911;28;20947;-62
2023/03/18 03:26:33;;;;;;;9.13;5.73;;;;;;;;;;5096149;28;20552;-62
2023/03/18 03:29:03;;;;;;;9.10;5.10;;;;;;;;;;5091027;28;20452;-62
2023/03/18 03:31:29;;;;;;;9.80;5.57;;;;;;;;;;5092630;28;20534;-59
2023/03/18 03:33:57;;;;;;;9.27;4.90;;;;;;;;;;5100725;28;20477;-60
2023/03/18 03:36:25;;;;;;;8.20;4.57;;;;;;;;;;5094259;28;20488;-59
2023/03/18 03:38:51;;;;;;;7.00;4.70;;;;;;;;;;5089708;28;20507;-62
2023/03/18 03:41:18;;;;;;;7.37;4.87;;;;;;;;;;5089342;28;20507;-62
2023/03/18 03:43:45;;;;;;;10.70;5.20;;;;;;;;;;5100077;28;20486;-61
2023/03/18 03:46:12;;;;;;;11.27;5.47;;;;;;;;;;5088000;28;20930;-61
2023/03/18 03:48:39;;;;;;;13.77;5.43;;;;;;;;;;5100298;28;20879;-62
2023/03/18 03:51:06;;;;;;;7.30;5.13;;;;;;;;;;5093389;28;20499;-61
2023/03/18 03:53:34;;;;;;;6.60;4.90;;;;;;;;;;5094818;28;20451;-62
2023/03/18 03:56:01;;;;;;;5.43;4.57;;;;;;;;;;5099688;28;20471;-62
2023/03/18 03:58:28;;;;;;;7.30;5.10;;;;;;;;;;5097098;28;20511;-62
2023/03/18 04:00:54;;;;;;;8.23;5.23;;;;;;;;;;5093490;28;20475;-60
2023/03/18 04:03:21;;;;;;;7.63;4.73;;;;;;;;;;5092577;28;20457;-61
2023/03/18 04:05:48;;;;;;;6.00;4.60;;;;;;;;;;5092571;28;20841;-61
2023/03/18 04:08:14;;;;;;;5.53;4.60;;;;;;;;;;5093662;28;20523;-61
2023/03/18 04:10:42;;;;;;;5.83;5.20;;;;;;;;;;5090317;28;20577;-62
2023/03/18 04:13:09;;;;;;;8.10;5.53;;;;;;;;;;5088349;28;20455;-61
2023/03/18 04:15:36;;;;;;;11.40;5.07;;;;;;;;;;5092678;28;21003;-59
2023/03/18 04:18:05;;;;;;;12.57;5.47;;;;;;;;;;5102680;28;20495;-61
2023/03/18 04:20:33;;;;;;;7.63;5.87;;;;;;;;;;5096492;28;21432;-60
2023/03/18 04:22:59;;;;;;;8.93;5.53;;;;;;;;;;5096619;28;20490;-61
2023/03/18 04:25:25;;;;;;;6.93;4.70;;;;;;;;;;5103237;28;20483;-60
2023/03/18 04:27:53;;;;;;;12.40;6.13;;;;;;;;;;5103059;28;20482;-61
2023/03/18 04:30:22;;;;;;;7.40;5.17;;;;;;;;;;5094673;28;20443;-62
2023/03/18 04:32:49;;;;;;;8.80;5.40;;;;;;;;;;5097453;28;21039;-59
2023/03/18 04:35:16;;;;;;;8.00;5.53;;;;;;;;;;5102579;28;20550;-61
2023/03/18 04:37:43;;;;;;;13.10;5.73;;;;;;;;;;5096401;28;20472;-58
2023/03/18 04:40:11;;;;;;;7.93;5.20;;;;;;;;;;5102261;28;21043;-59
2023/03/18 04:42:37;;;;;;;10.90;5.60;;;;;;;;;;5103071;28;20499;-59
2023/03/18 04:45:06;;;;;;;8.57;5.60;;;;;;;;;;5099512;28;20486;-61
2023/03/18 04:47:34;;;;;;;9.53;4.97;;;;;;;;;;5100249;28;20498;-60
2023/03/18 04:50:01;;;;;;;8.40;5.10;;;;;;;;;;5103379;28;20534;-62
2023/03/18 04:52:27;;;;;;;6.30;5.30;;;;;;;;;;5102443;28;20487;-60
2023/03/18 04:54:54;;;;;;;8.30;5.23;;;;;;;;;;5090431;28;20450;-60
2023/03/18 04:57:20;;;;;;;7.23;5.07;;;;;;;;;;5100203;28;20480;-61
2023/03/18 04:59:47;;;;;;;9.97;5.40;;;;;;;;;;5101791;28;20468;-61
2023/03/18 05:02:15;;;;;;;8.43;7.00;;;;;;;;;;5101451;28;20467;-61
2023/03/18 05:04:42;;;;;;;11.67;6.40;;;;;;;;;;5096582;28;20452;-61
2023/03/18 05:07:08;;;;;;;10.97;5.20;;;;;;;;;;5097871;28;20476;-61
2023/03/18 05:09:35;;;;;;;11.80;5.93;;;;;;;;;;5098007;28;20454;-59
2023/03/18 05:12:01;;;;;;;6.63;5.50;;;;;;;;;;5098509;28;20491;-60
2023/03/18 05:14:28;;;;;;;11.77;6.13;;;;;;;;;;5093668;28;20460;-59
2023/03/18 05:16:54;;;;;;;10.13;6.30;;;;;;;;;;5101281;28;20538;-61
2023/03/18 05:19:24;;;;;;;11.10;7.10;;;;;;;;;;5102748;28;20443;-61
2023/03/18 05:21:50;;;;;;;12.73;7.10;;;;;;;;;;5098151;28;20484;-59
2023/03/18 05:24:17;;;;;;;11.47;6.43;;;;;;;;;;5092276;28;20447;-60
2023/03/18 05:26:43;;;;;;;9.60;6.87;;;;;;;;;;5095097;28;20533;-61
2023/03/18 05:29:10;;;;;;;13.53;7.53;;;;;;;;;;5096646;28;20447;-60
2023/03/18 05:31:37;;;;;;;10.47;7.40;;;;;;;;;;5093420;28;20583;-60
2023/03/18 05:34:05;;;;;;;10.63;7.93;;;;;;;;;;5102345;28;20444;-59
2023/03/18 05:36:33;;;;;;;9.00;8.00;;;;;;;;;;5100566;28;20509;-59
2023/03/18 05:39:00;;;;;;;12.60;7.80;;;;;;;;;;5094040;28;20480;-61
2023/03/18 05:41:26;;;;;;;13.37;7.80;;;;;;;;;;5101340;28;20623;-61
2023/03/18 05:43:53;;;;;;;11.23;7.60;;;;;;;;;;5101406;28;20510;-58
2023/03/18 05:46:19;;;;;;;12.17;8.60;;;;;;;;;;5092214;28;20483;-61
2023/03/18 05:48:46;;;;;;;8.93;8.00;;;;;;;;;;5094656;28;20467;-60
2023/03/18 05:51:13;;;;;;;14.27;10.27;;;;;;;;;;5100975;28;20564;-61
2023/03/18 05:53:41;;;;;;;11.10;7.90;;;;;;;;;;5095813;28;20484;-59
2023/03/18 05:56:08;;;;;;;14.97;9.07;;;;;;;;;;5098390;28;20475;-59
2023/03/18 05:58:34;;;;;;;188.17;87.40;;;;;;;;;;5101791;28;20518;-59
2023/03/18 06:01:01;;;;;;;74.93;39.20;;;;;;;;;;5095959;28;20542;-60
2023/03/18 06:03:28;;;;;;;33.33;17.83;;;;;;;;;;5101037;28;20459;-64
2023/03/18 06:05:55;;;;;;;18.27;9.43;;;;;;;;;;5100910;28;20923;-63
2023/03/18 06:08:22;;;;;;;15.37;11.50;;;;;;;;;;5096786;28;20448;-63
2023/03/18 06:10:50;;;;;;;18.50;9.20;;;;;;;;;;5091857;28;20471;-66
2023/03/18 06:13:17;;;;;;;14.17;10.00;;;;;;;;;;5100029;28;20443;-66
2023/03/18 06:15:43;;;;;;;15.67;9.40;;;;;;;;;;5100690;28;20539;-66
2023/03/18 06:18:10;;;;;;;10.53;8.40;;;;;;;;;;5100627;28;20528;-64
2023/03/18 06:20:37;;;;;;;13.20;9.20;;;;;;;;;;5099146;28;20500;-65
2023/03/18 06:23:04;;;;;;;10.83;8.40;;;;;;;;;;5086838;28;20452;-64
2023/03/18 06:25:30;;;;;;;14.43;9.00;;;;;;;;;;5096906;28;20495;-65
2023/03/18 06:27:58;;;;;;;11.60;8.73;;;;;;;;;;5095279;28;20471;-63
2023/03/18 06:30:25;;;;;;;13.50;9.17;;;;;;;;;;5100052;28;20904;-65
2023/03/18 06:32:52;;;;;;;13.33;10.33;;;;;;;;;;5096589;28;20498;-64
2023/03/18 06:35:18;;;;;;;18.40;14.40;;;;;;;;;;5100495;28;20459;-64
2023/03/18 06:37:45;;;;;;;11.90;9.60;;;;;;;;;;5100767;28;20467;-64
2023/03/18 06:40:12;;;;;;;18.07;9.63;;;;;;;;;;5099703;28;20483;-64
2023/03/18 06:42:39;;;;;;;13.10;9.37;;;;;;;;;;5093007;28;20488;-62
2023/03/18 06:45:08;;;;;;;20.30;8.70;;;;;;;;;;5092120;28;20452;-60
2023/03/18 06:47:35;;;;;;;14.10;8.57;;;;;;;;;;5098086;28;20459;-62
2023/03/18 06:50:02;;;;;;;10.00;7.50;;;;;;;;;;5087002;28;20473;-64
2023/03/18 06:52:28;;;;;;;9.10;7.63;;;;;;;;;;5097584;28;20475;-65
2023/03/18 06:54:55;;;;;;;11.33;7.10;;;;;;;;;;5094954;28;20475;-65
2023/03/18 06:57:21;;;;;;;9.90;8.00;;;;;;;;;;5092776;28;20514;-66
2023/03/18 06:59:48;;;;;;;12.90;6.70;;;;;;;;;;5097247;28;20455;-66
2023/03/18 07:02:16;;;;;;;9.20;7.23;;;;;;;;;;5099393;28;20476;-63
2023/03/18 07:04:43;;;;;;;12.23;6.67;;;;;;;;;;5094242;28;20453;-59
2023/03/18 07:07:09;;;;;;;7.93;6.37;;;;;;;;;;5086706;28;20480;-61
2023/03/18 07:09:36;;;;;;;11.63;6.40;;;;;;;;;;5092912;28;20520;-64
2023/03/18 07:12:03;;;;;;;7.63;6.23;;;;;;;;;;5093012;28;20561;-65
2023/03/18 07:14:29;;;;;;;13.53;6.30;;;;;;;;;;5096242;28;20504;-65
2023/03/18 07:16:56;;;;;;;8.80;6.93;;;;;;;;;;5089568;28;20479;-58
2023/03/18 07:19:24;;;;;;;7.73;5.70;;;;;;;;;;5100216;28;20479;-60
2023/03/18 07:21:51;;;;;;;9.67;6.30;;;;;;;;;;5096611;28;20514;-59
2023/03/18 07:24:19;;;;;;;11.20;6.37;;;;;;;;;;5096565;28;20463;-59
2023/03/18 07:26:46;;;;;;;10.60;5.93;;;;;;;;;;5099370;28;20487;-61
2023/03/18 07:29:12;;;;;;;8.40;5.63;;;;;;;;;;5095535;28;20473;-61
2023/03/18 07:31:39;;;;;;;7.43;5.97;;;;;;;;;;5092216;28;20478;-60
2023/03/18 07:34:05;;;;;;;8.10;5.67;;;;;;;;;;5089424;28;20456;-61
2023/03/18 07:36:35;;;;;;;8.23;6.03;;;;;;;;;;5096494;28;20545;-60
2023/03/18 07:39:02;;;;;;;9.33;6.80;;;;;;;;;;5087243;28;20498;-61
2023/03/18 07:41:28;;;;;;;9.37;6.10;;;;;;;;;;5074913;28;20487;-61
2023/03/18 07:43:55;;;;;;;10.03;6.00;;;;;;;;;;5100088;28;20490;-62
2023/03/18 07:46:21;;;;;;;6.83;6.10;;;;;;;;;;5089305;28;20495;-63
2023/03/18 07:48:48;;;;;;;8.87;7.00;;;;;;;;;;5095904;28;20451;-62
2023/03/18 07:51:15;;;;;;;9.60;6.30;;;;;;;;;;5095286;28;20463;-62
2023/03/18 07:53:43;;;;;;;10.57;6.40;;;;;;;;;;5096901;28;20452;-63
2023/03/18 07:56:10;;;;;;;12.37;6.80;;;;;;;;;;5087673;28;20472;-62
2023/03/18 07:58:37;;;;;;;9.27;6.23;;;;;;;;;;5089843;28;20495;-62
2023/03/18 08:01:04;;;;;;;11.40;6.40;;;;;;;;;;5087039;28;20494;-62
2023/03/18 08:03:30;;;;;;;10.77;6.57;;;;;;;;;;5094752;28;20464;-61
2023/03/18 08:05:57;;;;;;;11.80;6.60;;;;;;;;;;5096345;28;20471;-60
2023/03/18 08:08:24;;;;;;;8.67;7.20;;;;;;;;;;5093953;28;20480;-61
2023/03/18 08:10:53;;;;;;;10.37;6.30;;;;;;;;;;5089812;28;20496;-62
2023/03/18 08:13:20;;;;;;;9.30;6.30;;;;;;;;;;5089873;28;21638;-62
2023/03/18 08:15:47;;;;;;;7.20;6.00;;;;;;;;;;5089072;28;20566;-63
2023/03/18 08:18:13;;;;;;;11.07;6.70;;;;;;;;;;5087856;28;20522;-61
2023/03/18 08:20:40;;;;;;;12.10;7.23;;;;;;;;;;5097673;28;20506;-63
2023/03/18 08:23:06;;;;;;;7.70;6.30;;;;;;;;;;5106920;28;20463;-62
2023/03/18 08:25:33;;;;;;;7.50;6.70;;;;;;;;;;5110528;28;20471;-61
2023/03/18 08:28:01;;;;;;;7.53;5.97;;;;;;;;;;5110495;28;20494;-61
2023/03/18 08:30:29;;;;;;;11.33;6.60;;;;;;;;;;5105558;28;20455;-62
2023/03/18 08:32:56;;;;;;;10.07;6.70;;;;;;;;;;5096845;28;20495;-58
2023/03/18 08:35:23;;;;;;;8.83;7.03;;;;;;;;;;5097400;28;20770;-62
2023/03/18 08:37:50;;;;;;;9.63;6.40;;;;;;;;;;5083182;28;20455;-62
2023/03/18 08:40:16;;;;;;;9.53;6.70;;;;;;;;;;5101641;28;20451;-63
2023/03/18 08:42:44;;;;;;;11.27;6.87;;;;;;;;;;5107272;28;21213;-60
2023/03/18 08:45:12;;;;;;;7.73;6.10;;;;;;;;;;5101287;28;20455;-63
2023/03/18 08:47:39;;;;;;;9.20;6.50;;;;;;;;;;5098577;28;20480;-62
2023/03/18 08:50:05;;;;;;;9.00;7.00;;;;;;;;;;5101487;28;20433;-63
2023/03/18 08:52:32;;;;;;;9.10;6.50;;;;;;;;;;5098303;28;20462;-62
2023/03/18 08:54:58;;;;;;;10.10;7.40;;;;;;;;;;5103530;28;20453;-62
2023/03/18 08:57:26;;;;;;;8.87;6.77;;;;;;;;;;5091875;28;20504;-62
2023/03/18 08:59:53;;;;;;;6.80;5.73;;;;;;;;;;5098295;28;20490;-62
2023/03/18 09:02:22;;;;;;;7.40;5.60;;;;;;;;;;5099329;28;20533;-63
2023/03/18 09:04:49;;;;;;;8.27;5.90;;;;;;;;;;5102133;28;20455;-61
2023/03/18 09:07:15;;;;;;;7.80;5.57;;;;;;;;;;5099321;28;20483;-65
2023/03/18 09:09:42;;;;;;;7.20;5.80;;;;;;;;;;5096957;28;20455;-62
2023/03/18 09:12:10;;;;;;;7.60;5.50;;;;;;;;;;5093773;28;20485;-68
2023/03/18 09:14:37;;;;;;;10.80;6.47;;;;;;;;;;5092863;28;20460;-63
2023/03/18 09:17:04;;;;;;;8.50;5.97;;;;;;;;;;5098525;28;20477;-64
2023/03/18 09:19:32;;;;;;;9.10;6.30;;;;;;;;;;5081890;28;20827;-64
2023/03/18 09:21:59;;;;;;;8.67;6.43;;;;;;;;;;5090856;28;20476;-63
2023/03/18 09:24:25;;;;;;;7.27;5.73;;;;;;;;;;5097030;28;20451;-62
2023/03/18 09:26:52;;;;;;;10.23;6.20;;;;;;;;;;5086202;28;21122;-61
2023/03/18 09:29:18;;;;;;;10.63;7.17;;;;;;;;;;5100338;28;20455;-61
2023/03/18 09:31:45;;;;;;;10.67;7.47;;;;;;;;;;5097990;28;20536;-63
2023/03/18 09:34:13;;;;;;;8.57;6.77;;;;;;;;;;5092536;28;20525;-64
2023/03/18 09:36:42;;;;;;;9.93;7.70;;;;;;;;;;5092535;28;20569;-64
2023/03/18 09:39:08;;;;;;;12.17;7.10;;;;;;;;;;5104692;28;20497;-65
2023/03/18 09:41:41;;;;;;;10.43;7.43;;;;;;;;;;5099956;28;20478;-61
2023/03/18 09:44:13;;;;;;;10.10;7.13;;;;;;;;;;5095865;28;20477;-64
2023/03/18 09:46:46;;;;;;;13.33;7.90;;;;;;;;;;5095751;28;20486;-63
2023/03/18 09:49:17;;;;;;;8.00;6.93;;;;;;;;;;5098574;28;20451;-64
2023/03/18 09:51:50;;;;;;;9.43;6.43;;;;;;;;;;5099234;28;20598;-64
2023/03/18 09:54:19;;;;;;;8.50;5.10;;;;;;;;;;5094557;28;20456;-63
2023/03/18 09:56:47;;;;;;;7.10;6.10;;;;;;;;;;5100360;28;20473;-64
2023/03/18 09:59:17;;;;;;;9.10;5.80;;;;;;;;;;5090934;28;20476;-64
2023/03/18 10:01:44;;;;;;;7.20;5.87;;;;;;;;;;5098396;28;20485;-61
2023/03/18 10:04:13;;;;;;;8.07;5.70;;;;;;;;;;5101261;28;20458;-64
2023/03/18 10:06:41;;;;;;;9.23;6.30;;;;;;;;;;5096322;28;21042;-63
2023/03/18 10:09:14;;;;;;;6.40;5.40;;;;;;;;;;5100205;28;20444;-62
2023/03/18 10:11:42;;;;;;;8.00;5.70;;;;;;;;;;5094509;28;20467;-65
2023/03/18 10:14:17;;;;;;;6.63;5.90;;;;;;;;;;5096672;28;20455;-65
2023/03/18 10:16:47;;;;;;;6.23;5.63;;;;;;;;;;5093400;28;20478;-60
2023/03/18 10:19:14;;;;;;;7.10;6.10;;;;;;;;;;5095337;28;20486;-64
2023/03/18 10:21:44;;;;;;;7.60;6.30;;;;;;;;;;5095059;28;20516;-65
2023/03/18 10:24:19;;;;;;;7.37;6.07;;;;;;;;;;5099867;28;20665;-64
2023/03/18 10:26:47;;;;;;;8.67;6.07;;;;;;;;;;5100505;28;20474;-60
2023/03/18 10:29:21;;;;;;;14.70;7.10;;;;;;;;;;5097588;28;20451;-64
2023/03/18 10:31:53;;;;;;;7.10;6.40;;;;;;;;;;5097678;28;20463;-64
2023/03/18 10:34:21;;;;;;;9.50;6.70;;;;;;;;;;5094464;28;20456;-63
2023/03/18 10:36:50;;;;;;;8.80;6.90;;;;;;;;;;5099539;28;20498;-61
2023/03/18 10:39:19;;;;;;;9.07;6.63;;;;;;;;;;5090325;28;20471;-64
2023/03/18 10:41:48;;;;;;;8.43;6.10;;;;;;;;;;5097831;28;20525;-63
2023/03/18 10:44:17;;;;;;;7.60;6.40;;;;;;;;;;5095302;28;20435;-64
2023/03/18 10:46:46;;;;;;;6.90;6.03;;;;;;;;;;5091764;28;20570;-64
2023/03/18 10:49:15;;;;;;;6.97;5.77;;;;;;;;;;5094948;28;20486;-64
2023/03/18 10:51:44;;;;;;;7.37;6.17;;;;;;;;;;5093963;28;21080;-65
2023/03/18 10:54:14;;;;;;;6.70;6.00;;;;;;;;;;5097326;28;20602;-63
2023/03/18 10:56:42;;;;;;;8.20;6.30;;;;;;;;;;5092859;28;20475;-61
2023/03/18 10:59:11;;;;;;;7.50;6.70;;;;;;;;;;5090149;28;20475;-65
2023/03/18 11:01:39;;;;;;;7.17;6.43;;;;;;;;;;5099298;28;20576;-64
2023/03/18 11:04:06;;;;;;;7.00;6.30;;;;;;;;;;5093468;28;20455;-63
2023/03/18 11:06:40;;;;;;;6.50;5.80;;;;;;;;;;5098497;28;20479;-64
2023/03/18 11:09:08;;;;;;;7.83;5.90;;;;;;;;;;5091691;28;20501;-64
2023/03/18 11:11:35;;;;;;;6.70;5.90;;;;;;;;;;5099267;28;20470;-63
2023/03/18 11:14:05;;;;;;;5.67;5.07;;;;;;;;;;5099737;28;20451;-64
2023/03/18 11:16:38;;;;;;;5.10;4.27;;;;;;;;;;5091300;28;20500;-64
2023/03/18 11:19:19;;;;;;;5.53;4.20;;;;;;;;;;5092597;28;20478;-66
2023/03/18 11:21:47;;;;;;;5.10;4.10;;;;;;;;;;5094444;28;20475;-64
2023/03/18 11:24:34;;;;;;;5.60;4.50;;;;;;;;;;5088747;28;20483;-64
2023/03/18 11:27:01;;;;;;;3.60;2.80;;;;;;;;;;5099712;28;20562;-65
2023/03/18 11:29:32;;;;;;;4.20;3.03;;;;;;;;;;5100867;28;20443;-62
2023/03/18 11:31:59;;;;;;;3.70;3.30;;;;;;;;;;5092521;28;20487;-59
2023/03/18 11:34:26;;;;;;;3.27;2.97;;;;;;;;;;5091951;28;20456;-64
2023/03/18 11:36:54;;;;;;;4.07;2.77;;;;;;;;;;5101603;28;20487;-63
2023/03/18 11:39:22;;;;;;;4.43;2.63;;;;;;;;;;5099363;28;20475;-65
2023/03/18 11:41:49;;;;;;;2.77;2.20;;;;;;;;;;5090940;28;20471;-65
2023/03/18 11:44:17;;;;;;;3.13;2.23;;;;;;;;;;5097555;28;20550;-64
2023/03/18 11:46:47;;;;;;;2.53;2.20;;;;;;;;;;5102358;28;20478;-62
2023/03/18 11:49:16;;;;;;;3.80;2.57;;;;;;;;;;5095941;28;21017;-64
2023/03/18 11:51:46;;;;;;;3.70;2.90;;;;;;;;;;5099481;28;20473;-63
2023/03/18 11:54:34;;;;;;;2.83;2.40;;;;;;;;;;5095365;28;20482;-64
2023/03/18 11:57:03;;;;;;;2.77;2.57;;;;;;;;;;5064567;28;20471;-64
2023/03/18 11:59:39;;;;;;;4.50;2.97;;;;;;;;;;5073638;28;20924;-64
2023/03/18 12:02:23;;;;;;;3.83;2.57;;;;;;;;;;5082098;28;20545;-62
2023/03/18 12:05:08;;;;;;;3.03;2.20;;;;;;;;;;5075017;28;20471;-64
2023/03/18 12:07:52;;;;;;;3.03;2.37;;;;;;;;;;5098252;28;20463;-64
2023/03/18 12:10:24;;;;;;;3.00;2.70;;;;;;;;;;5096843;28;20491;-64
2023/03/18 12:12:59;;;;;;;3.53;2.37;;;;;;;;;;5094150;28;20485;-64
2023/03/18 12:15:35;;;;;;;3.50;2.97;;;;;;;;;;5096327;28;20455;-64
2023/03/18 12:18:07;;;;;;;2.73;2.47;;;;;;;;;;5099145;28;20462;-65
2023/03/18 12:20:39;;;;;;;5.40;2.37;;;;;;;;;;5093365;28;20546;-63
2023/03/18 12:23:12;;;;;;;5.80;3.00;;;;;;;;;;5099530;28;20460;-62
2023/03/18 12:25:53;;;;;;;2.90;2.30;;;;;;;;;;5100474;28;20498;-63
2023/03/18 12:28:25;;;;;;;2.63;2.43;;;;;;;;;;5089168;28;20482;-65
2023/03/18 12:30:59;;;;;;;2.50;2.20;;;;;;;;;;5092614;28;20477;-64
2023/03/18 12:33:38;;;;;;;3.33;2.57;;;;;;;;;;5099123;28;20457;-66
2023/03/18 12:36:11;;;;;;;2.90;2.20;;;;;;;;;;5092410;28;20540;-64
2023/03/18 12:38:45;;;;;;;2.80;2.60;;;;;;;;;;5101106;28;20442;-65
2023/03/18 12:41:17;;;;;;;3.00;2.80;;;;;;;;;;5095535;28;20490;-64
2023/03/18 12:43:50;;;;;;;3.83;3.13;;;;;;;;;;5096221;28;20483;-63
2023/03/18 12:46:21;;;;;;;3.10;2.80;;;;;;;;;;5097223;28;20823;-65
2023/03/18 12:48:51;;;;;;;3.70;2.50;;;;;;;;;;5096212;28;20852;-64
2023/03/18 12:51:20;;;;;;;3.57;2.23;;;;;;;;;;5097426;28;20471;-64
2023/03/18 12:53:49;;;;;;;3.20;2.43;;;;;;;;;;5102364;28;20455;-63
2023/03/18 12:56:20;;;;;;;2.60;2.40;;;;;;;;;;5095758;28;20479;-61
2023/03/18 12:58:49;;;;;;;2.83;2.30;;;;;;;;;;5096958;28;20510;-65
2023/03/18 13:01:17;;;;;;;2.70;2.33;;;;;;;;;;5092273;28;20475;-64
2023/03/18 13:03:44;;;;;;;3.87;2.20;;;;;;;;;;5094480;28;20452;-65
2023/03/18 13:06:14;;;;;;;2.60;2.17;;;;;;;;;;5099690;28;20516;-64
2023/03/18 13:08:59;;;;;;;2.83;2.33;;;;;;;;;;5093889;28;20453;-65
2023/03/18 13:11:32;;;;;;;5.57;2.83;;;;;;;;;;5092073;28;20480;-63
2023/03/18 13:14:01;;;;;;;2.90;2.70;;;;;;;;;;5102412;28;20504;-64
2023/03/18 13:16:28;;;;;;;3.17;2.60;;;;;;;;;;5098594;28;20471;-64
2023/03/18 13:18:56;;;;;;;3.47;2.50;;;;;;;;;;5096606;28;20980;-66
2023/03/18 13:21:24;;;;;;;2.97;2.37;;;;;;;;;;5101486;28;20487;-65
2023/03/18 13:24:12;;;;;;;2.27;2.07;;;;;;;;;;5099405;28;20455;-64
2023/03/18 13:26:49;;;;;;;2.53;2.33;;;;;;;;;;5088668;28;20490;-64
2023/03/18 13:29:19;;;;;;;3.60;2.87;;;;;;;;;;5093458;28;20480;-63
2023/03/18 13:31:52;;;;;;;3.63;2.97;;;;;;;;;;5098563;28;20501;-64
2023/03/18 13:34:47;;;;;;;3.67;2.90;;;;;;;;;;5097486;28;20516;-62
2023/03/18 13:37:23;;;;;;;4.20;2.80;;;;;;;;;;5091742;28;20479;-64
2023/03/18 13:40:04;;;;;;;3.67;3.17;;;;;;;;;;5086636;28;20479;-65
2023/03/18 13:42:34;;;;;;;6.40;2.80;;;;;;;;;;5092120;28;20562;-65
2023/03/18 13:45:05;;;;;;;2.80;2.33;;;;;;;;;;5096998;28;20783;-65
2023/03/18 13:47:33;;;;;;;4.27;3.40;;;;;;;;;;5081756;28;20479;-63
2023/03/18 13:50:02;;;;;;;4.40;2.90;;;;;;;;;;5098099;28;20447;-63
2023/03/18 13:52:34;;;;;;;4.07;3.10;;;;;;;;;;5095745;28;20483;-63
2023/03/18 13:55:08;;;;;;;3.73;3.37;;;;;;;;;;5095529;28;21160;-65
2023/03/18 13:57:49;;;;;;;5.03;3.60;;;;;;;;;;5099099;28;20487;-65
2023/03/18 14:00:37;;;;;;;3.40;3.07;;;;;;;;;;5097046;28;20584;-65
2023/03/18 14:03:21;;;;;;;4.23;3.30;;;;;;;;;;5090273;28;20472;-63
2023/03/18 14:05:50;;;;;;;3.73;3.20;;;;;;;;;;5096096;28;20504;-60
2023/03/18 14:08:35;;;;;;;5.20;4.43;;;;;;;;;;5094937;28;20455;-64
2023/03/18 14:11:21;;;;;;;4.33;3.60;;;;;;;;;;5097370;28;20479;-63
2023/03/18 14:13:50;;;;;;;4.40;4.00;;;;;;;;;;5094334;28;20467;-65
2023/03/18 14:16:19;;;;;;;7.33;4.07;;;;;;;;;;5094463;28;20495;-61
2023/03/18 14:18:52;;;;;;;3.90;3.30;;;;;;;;;;5096079;28;21035;-63
2023/03/18 14:21:28;;;;;;;4.63;3.40;;;;;;;;;;5088483;28;20475;-64
2023/03/18 14:24:01;;;;;;;4.30;3.57;;;;;;;;;;5101173;28;20512;-64
2023/03/18 14:26:28;;;;;;;4.23;3.60;;;;;;;;;;5092105;28;20476;-64
2023/03/18 14:28:55;;;;;;;4.80;3.47;;;;;;;;;;5101200;28;20486;-62
2023/03/18 14:31:26;;;;;;;3.20;2.67;;;;;;;;;;5096354;28;20517;-65
2023/03/18 14:33:58;;;;;;;3.50;3.17;;;;;;;;;;5091691;28;20455;-63
2023/03/18 14:36:39;;;;;;;3.53;3.13;;;;;;;;;;5094181;28;20472;-62
2023/03/18 14:39:06;;;;;;;3.60;3.30;;;;;;;;;;5096624;28;20444;-63
2023/03/18 14:41:34;;;;;;;4.80;3.10;;;;;;;;;;5088435;28;20472;-64
2023/03/18 14:44:06;;;;;;;4.10;3.50;;;;;;;;;;5098100;28;20451;-64
2023/03/18 14:46:36;;;;;;;4.20;3.00;;;;;;;;;;5096282;28;20617;-59
2023/03/18 14:49:03;;;;;;;4.70;3.10;;;;;;;;;;5091081;28;20592;-61